createdAt,value
2022-08-05T00:02:22.813Z,97519.38
2022-08-05T00:04:55.071Z,97516.94
2022-08-05T00:07:27.030Z,97521.50
2022-08-05T00:10:12.001Z,97509.00
2022-08-05T00:16:14.726Z,97506.38
2022-08-05T00:18:44.770Z,97507.84
2022-08-05T00:21:14.430Z,97504.44
2022-08-05T00:23:53.606Z,97503.66
2022-08-05T00:26:31.923Z,97500.78
2022-08-05T00:28:59.431Z,97496.44
2022-08-05T00:32:13.245Z,97497.28
2022-08-05T00:35:05.287Z,97493.84
2022-08-05T00:37:35.856Z,97494.53
2022-08-05T00:40:29.538Z,97496.13
2022-08-05T00:43:02.220Z,97493.94
2022-08-05T00:45:43.096Z,97491.53
2022-08-05T00:48:13.558Z,97494.47
2022-08-05T00:50:44.115Z,97491.44
2022-08-05T00:54:00.970Z,97488.19
2022-08-05T00:56:00.386Z,97485.91
2022-08-05T00:58:27.877Z,97489.19
2022-08-05T01:00:56.128Z,97491.13
2022-08-05T01:03:24.696Z,97487.47
2022-08-05T01:06:01.189Z,97486.53
2022-08-05T01:08:43.366Z,97492.56
2022-08-05T01:11:22.151Z,97485.03
2022-08-05T01:14:10.892Z,97487.66
2022-08-05T01:16:52.341Z,97486.38
2022-08-05T01:19:36.565Z,97486.94
2022-08-05T01:22:42.876Z,97486.88
2022-08-05T01:25:40.776Z,97472.94
2022-08-05T01:28:26.992Z,97476.97
2022-08-05T01:31:04.859Z,97476.53
2022-08-05T01:33:39.130Z,97470.78
2022-08-05T01:36:16.256Z,97475.34
2022-08-05T01:38:49.629Z,97469.75
2022-08-05T01:41:20.985Z,97475.88
2022-08-05T01:43:51.281Z,97468.59
2022-08-05T01:46:41.393Z,97465.69
2022-08-05T01:49:24.383Z,97463.28
2022-08-05T01:51:59.430Z,97462.34
2022-08-05T01:54:46.277Z,97467.22
2022-08-05T01:58:11.439Z,97463.81
2022-08-05T02:00:11.861Z,97455.97
2022-08-05T02:02:55.039Z,97450.38
2022-08-05T02:05:29.005Z,97450.38
2022-08-05T02:08:01.174Z,97450.53
2022-08-05T02:10:35.299Z,97440.66
2022-08-05T02:13:16.004Z,97438.28
2022-08-05T02:16:06.275Z,97438.06
2022-08-05T02:18:42.888Z,97435.44
2022-08-05T02:21:15.072Z,97435.59
2022-08-05T02:23:46.798Z,97433.66
2022-08-05T02:26:26.428Z,97429.28
2022-08-05T02:28:56.179Z,97428.97
2022-08-05T02:31:34.969Z,97420.47
2022-08-05T02:34:10.096Z,97418.69
2022-08-05T02:36:43.590Z,97421.41
2022-08-05T02:39:13.194Z,97410.13
2022-08-05T02:41:57.496Z,97417.50
2022-08-05T02:44:32.249Z,97414.44
2022-08-05T02:47:01.284Z,97416.38
2022-08-05T02:49:37.095Z,97409.78
2022-08-05T02:52:11.759Z,97418.81
2022-08-05T02:54:54.878Z,97407.97
2022-08-05T02:58:20.021Z,97405.59
2022-08-05T03:00:13.719Z,97407.50
2022-08-05T03:02:44.068Z,97401.56
2022-08-05T03:05:13.957Z,97400.63
2022-08-05T03:08:00.821Z,97401.09
2022-08-05T03:10:31.096Z,97401.75
2022-08-05T03:15:24.879Z,97396.59
2022-08-05T03:17:55.641Z,97399.94
2022-08-05T03:20:24.380Z,97395.97
2022-08-05T03:22:55.272Z,97402.00
2022-08-05T03:25:32.441Z,97400.09
2022-08-05T03:28:08.422Z,97403.25
2022-08-05T03:30:38.352Z,97400.41
2022-08-05T03:33:09.275Z,97407.50
2022-08-05T03:35:40.731Z,97400.63
2022-08-05T03:38:14.507Z,97403.38
2022-08-05T03:40:47.389Z,97395.97
2022-08-05T03:44:09.796Z,97403.66
2022-08-05T03:46:05.518Z,97404.00
2022-08-05T03:48:36.806Z,97405.25
2022-08-05T03:52:38.609Z,97414.03
2022-08-05T03:56:03.794Z,97405.97
2022-08-05T03:56:58.902Z,97407.53
2022-08-05T03:59:46.753Z,97399.88
2022-08-05T04:02:37.755Z,97395.16
2022-08-05T04:05:10.136Z,97392.22
2022-08-05T04:07:58.296Z,97389.97
2022-08-05T04:10:30.864Z,97398.88
2022-08-05T04:13:03.425Z,97396.72
2022-08-05T04:15:33.109Z,97403.97
2022-08-05T04:18:04.013Z,97400.69
2022-08-05T04:20:35.157Z,97403.94
2022-08-05T04:23:03.146Z,97403.53
2022-08-05T04:25:57.620Z,97398.34
2022-08-05T04:28:22.468Z,97398.94
2022-08-05T04:31:01.135Z,97404.63
2022-08-05T04:34:17.269Z,97406.56
2022-08-05T04:36:45.558Z,97421.66
2022-08-05T04:39:06.318Z,97428.47
2022-08-05T04:41:37.236Z,97429.28
2022-08-05T04:44:09.642Z,97423.63
2022-08-05T04:46:38.650Z,97426.03
2022-08-05T04:49:14.417Z,97427.03
2022-08-05T04:51:44.099Z,97430.34
2022-08-05T04:54:12.264Z,97434.16
2022-08-05T04:56:40.022Z,97431.28
2022-08-05T04:59:21.885Z,97428.94
2022-08-05T05:02:35.372Z,97425.19
2022-08-05T05:04:47.666Z,97432.50
2022-08-05T05:07:18.333Z,97434.78
2022-08-05T05:09:52.235Z,97432.41
2022-08-05T05:12:22.238Z,97445.69
2022-08-05T05:14:51.317Z,97439.63
2022-08-05T05:17:23.943Z,97435.78
2022-08-05T05:19:56.410Z,97429.78
2022-08-05T05:22:26.071Z,97440.00
2022-08-05T05:25:00.262Z,97441.44
2022-08-05T05:27:41.225Z,97439.16
2022-08-05T05:30:30.975Z,97441.47
2022-08-05T05:33:03.872Z,97450.44
2022-08-05T05:35:42.684Z,97445.00
2022-08-05T05:38:13.268Z,97454.91
2022-08-05T05:40:48.322Z,97456.72
2022-08-05T05:43:22.229Z,97456.00
2022-08-05T05:46:13.629Z,97447.63
2022-08-05T05:48:44.507Z,97446.19
2022-08-05T05:51:14.994Z,97445.50
2022-08-05T05:53:54.159Z,97443.88
2022-08-05T05:56:32.675Z,97451.03
2022-08-05T05:59:03.343Z,97449.69
2022-08-05T06:01:38.107Z,97458.88
2022-08-05T06:04:14.545Z,97452.53
2022-08-05T06:06:47.400Z,97444.31
2022-08-05T06:09:24.882Z,97449.09
2022-08-05T06:12:01.414Z,97446.56
2022-08-05T06:14:31.068Z,97441.97
2022-08-05T06:17:01.938Z,97444.84
2022-08-05T06:19:34.738Z,97448.41
2022-08-05T06:22:07.415Z,97461.34
2022-08-05T06:24:48.137Z,97452.97
2022-08-05T06:28:08.841Z,97450.06
2022-08-05T06:30:18.090Z,97459.47
2022-08-05T06:32:50.767Z,97458.25
2022-08-05T06:36:02.955Z,97456.16
2022-08-05T06:38:11.171Z,97470.78
2022-08-05T06:40:44.593Z,97478.03
2022-08-05T06:43:59.012Z,97505.91
2022-08-05T06:46:06.808Z,97519.66
2022-08-05T06:48:53.696Z,97514.66
2022-08-05T06:51:30.263Z,97516.38
2022-08-05T06:54:00.235Z,97531.91
2022-08-05T06:56:34.330Z,97536.28
2022-08-05T06:59:09.744Z,97528.31
2022-08-05T07:01:41.539Z,97547.19
2022-08-05T07:04:10.255Z,97558.31
2022-08-05T07:06:37.965Z,97534.41
2022-08-05T07:09:05.661Z,97531.03
2022-08-05T07:11:36.860Z,97552.81
2022-08-05T07:14:29.675Z,97550.69
2022-08-05T07:18:00.459Z,97550.66
2022-08-05T07:22:38.818Z,97555.50
2022-08-05T07:25:09.560Z,97553.03
2022-08-05T07:28:02.327Z,97556.78
2022-08-05T07:30:39.141Z,97559.78
2022-08-05T07:33:17.112Z,97556.00
2022-08-05T07:36:02.304Z,97548.97
2022-08-05T07:38:42.673Z,97545.41
2022-08-05T07:42:12.977Z,97543.47
2022-08-05T07:44:14.149Z,97554.63
2022-08-05T07:46:42.084Z,97557.03
2022-08-05T07:49:15.965Z,97559.31
2022-08-05T07:51:54.466Z,97566.38
2022-08-05T07:54:31.169Z,97558.19
2022-08-05T07:57:17.695Z,97570.47
2022-08-05T07:59:51.336Z,97573.97
2022-08-05T08:02:26.700Z,97581.66
2022-08-05T08:04:58.853Z,97577.25
2022-08-05T08:07:28.151Z,97589.34
2022-08-05T08:09:55.859Z,97591.22
2022-08-05T08:12:35.182Z,97595.06
2022-08-05T08:15:09.665Z,97597.50
2022-08-05T08:17:50.780Z,97596.56
2022-08-05T08:21:00.568Z,97594.53
2022-08-05T08:24:00.200Z,97593.84
2022-08-05T08:25:59.070Z,97599.16
2022-08-05T08:28:36.793Z,97611.06
2022-08-05T08:31:18.704Z,97611.41
2022-08-05T08:33:51.604Z,97611.66
2022-08-05T08:36:39.212Z,97607.25
2022-08-05T08:39:15.654Z,97613.53
2022-08-05T08:41:52.547Z,97617.34
2022-08-05T08:45:17.975Z,97616.97
2022-08-05T08:48:05.564Z,97626.00
2022-08-05T08:50:31.026Z,97622.41
2022-08-05T08:53:12.335Z,97631.66
2022-08-05T08:56:04.215Z,97640.88
2022-08-05T08:58:37.579Z,97632.19
2022-08-05T09:01:15.755Z,97634.97
2022-08-05T09:03:57.598Z,97641.81
2022-08-05T09:06:29.931Z,97630.28
2022-08-05T09:09:01.097Z,97619.53
2022-08-05T09:11:51.276Z,97612.94
2022-08-05T09:14:58.375Z,97634.59
2022-08-05T09:17:09.391Z,97627.50
2022-08-05T09:20:01.323Z,97620.81
2022-08-05T09:22:31.860Z,97625.56
2022-08-05T09:25:02.105Z,97631.13
2022-08-05T09:28:05.094Z,97614.06
2022-08-05T09:30:34.939Z,97631.38
2022-08-05T09:33:02.964Z,97633.50
2022-08-05T09:35:32.813Z,97630.47
2022-08-05T09:38:16.987Z,97627.75
2022-08-05T09:40:52.639Z,97615.66
2022-08-05T09:43:41.896Z,97624.78
2022-08-05T09:46:27.596Z,97625.91
2022-08-05T09:49:08.158Z,97627.53
2022-08-05T09:51:49.915Z,97626.75
2022-08-05T09:54:30.121Z,97627.13
2022-08-05T09:57:01.722Z,97627.50
2022-08-05T09:59:34.767Z,97633.88
2022-08-05T10:02:05.490Z,97626.31
2022-08-05T10:04:38.550Z,97621.94
2022-08-05T10:07:20.119Z,97618.75
2022-08-05T10:10:02.710Z,97616.72
2022-08-05T10:12:56.885Z,97619.34
2022-08-05T10:15:26.011Z,97625.72
2022-08-05T10:18:10.531Z,97619.56
2022-08-05T10:20:42.943Z,97621.16
2022-08-05T10:23:34.194Z,97612.41
2022-08-05T10:26:07.416Z,97608.47
2022-08-05T10:28:46.393Z,97614.03
2022-08-05T10:32:47.786Z,97622.63
2022-08-05T10:34:07.860Z,97614.06
2022-08-05T10:36:40.966Z,97608.53
2022-08-05T10:39:25.255Z,97620.34
2022-08-05T10:42:18.815Z,97607.31
2022-08-05T10:45:00.374Z,97618.81
2022-08-05T10:47:33.494Z,97606.59
2022-08-05T10:50:32.695Z,97606.06
2022-08-05T10:52:58.768Z,97617.59
2022-08-05T10:55:27.681Z,97610.50
2022-08-05T10:58:09.546Z,97619.25
2022-08-05T11:00:46.179Z,97627.56
2022-08-05T11:03:23.380Z,97622.34
2022-08-05T11:06:19.133Z,97615.34
2022-08-05T11:09:18.593Z,97615.38
2022-08-05T11:11:54.082Z,97610.59
2022-08-05T11:14:57.613Z,97617.09
2022-08-05T11:17:58.859Z,97622.53
2022-08-05T11:20:46.225Z,97615.69
2022-08-05T11:24:03.365Z,97622.75
2022-08-05T11:26:32.150Z,97626.75
2022-08-05T11:29:13.255Z,97626.69
2022-08-05T11:31:54.266Z,97630.25
2022-08-05T11:34:52.095Z,97630.28
2022-08-05T11:38:28.358Z,97636.00
2022-08-05T11:41:01.804Z,97636.53
2022-08-05T11:44:12.817Z,97639.44
2022-08-05T11:47:10.474Z,97637.84
2022-08-05T11:49:43.411Z,97640.22
2022-08-05T11:52:31.010Z,97637.34
2022-08-05T11:55:07.658Z,97640.38
2022-08-05T11:58:08.301Z,97635.13
2022-08-05T12:00:30.806Z,97635.34
2022-08-05T12:02:58.806Z,97637.84
2022-08-05T12:05:36.452Z,97641.19
2022-08-05T12:08:11.416Z,97641.53
2022-08-05T12:10:45.756Z,97636.34
2022-08-05T12:13:17.058Z,97629.44
2022-08-05T12:15:49.897Z,97629.97
2022-08-05T12:18:39.931Z,97633.22
2022-08-05T12:21:15.234Z,97634.56
2022-08-05T12:24:17.581Z,97631.63
2022-08-05T12:26:50.166Z,97627.25
2022-08-05T12:29:25.176Z,97615.13
2022-08-05T12:31:58.219Z,97606.63
2022-08-05T12:34:35.900Z,97604.94
2022-08-05T12:37:17.092Z,97608.81
2022-08-05T12:39:51.904Z,97601.19
2022-08-05T12:42:21.959Z,97602.28
2022-08-05T12:44:53.098Z,97600.28
2022-08-05T12:47:30.458Z,97599.16
2022-08-05T12:50:04.403Z,97596.38
2022-08-05T12:52:38.904Z,97592.97
2022-08-05T12:55:25.142Z,97600.34
2022-08-05T12:58:49.881Z,97601.63
2022-08-05T13:02:02.434Z,97601.22
2022-08-05T13:03:41.497Z,97590.34
2022-08-05T13:06:16.780Z,97585.66
2022-08-05T13:08:51.952Z,97577.84
2022-08-05T13:12:01.811Z,97578.53
2022-08-05T13:14:36.399Z,97581.13
2022-08-05T13:17:41.366Z,97581.56
2022-08-05T13:20:15.937Z,97574.66
2022-08-05T13:22:49.068Z,97571.50
2022-08-05T13:25:22.168Z,97575.53
2022-08-05T13:28:07.849Z,97574.22
2022-08-05T13:30:39.107Z,97567.63
2022-08-05T13:33:06.808Z,97572.47
2022-08-05T13:35:47.266Z,97574.50
2022-08-05T13:38:31.192Z,97568.94
2022-08-05T13:41:04.405Z,97570.53
2022-08-05T13:43:44.561Z,97566.97
2022-08-05T13:46:30.623Z,97569.78
2022-08-05T13:49:06.064Z,97574.47
2022-08-05T13:51:40.900Z,97576.66
2022-08-05T13:54:12.406Z,97571.53
2022-08-05T13:56:45.144Z,97579.19
2022-08-05T13:59:21.386Z,97581.59
2022-08-05T14:01:58.038Z,97577.25
2022-08-05T14:04:51.580Z,97573.69
2022-08-05T14:07:25.838Z,97563.78
2022-08-05T14:10:12.708Z,97570.50
2022-08-05T14:12:42.629Z,97562.03
2022-08-05T14:16:07.118Z,97559.03
2022-08-05T14:18:01.400Z,97558.25
2022-08-05T14:20:30.730Z,97563.72
2022-08-05T14:22:59.530Z,97560.59
2022-08-05T14:25:28.145Z,97557.47
2022-08-05T14:27:56.307Z,97561.47
2022-08-05T14:30:28.029Z,97560.72
2022-08-05T14:32:57.067Z,97554.94
2022-08-05T14:35:37.062Z,97559.25
2022-08-05T14:38:31.639Z,97543.69
2022-08-05T14:41:05.840Z,97550.41
2022-08-05T14:44:02.059Z,97556.16
2022-08-05T14:46:30.729Z,97542.97
2022-08-05T14:49:06.510Z,97550.28
2022-08-05T14:51:37.580Z,97536.34
2022-08-05T14:54:28.291Z,97537.41
2022-08-05T14:56:55.570Z,97538.09
2022-08-05T14:59:23.694Z,97537.72
2022-08-05T15:01:51.433Z,97540.84
2022-08-05T15:04:22.780Z,97540.22
2022-08-05T15:06:51.769Z,97538.06
2022-08-05T15:09:50.552Z,97535.78
2022-08-05T15:12:11.596Z,97544.13
2022-08-05T15:14:49.506Z,97530.94
2022-08-05T15:17:46.985Z,97529.91
2022-08-05T15:20:18.934Z,97540.75
2022-08-05T15:22:52.347Z,97534.53
2022-08-05T15:25:41.017Z,97541.47
2022-08-05T15:28:14.874Z,97535.88
2022-08-05T15:30:45.626Z,97535.78
2022-08-05T15:34:05.013Z,97540.38
2022-08-05T15:36:04.920Z,97542.28
2022-08-05T15:38:40.793Z,97547.03
2022-08-05T15:41:21.236Z,97547.00
2022-08-05T15:43:54.592Z,97550.28
2022-08-05T15:46:24.812Z,97557.94
2022-08-05T15:48:58.907Z,97554.72
2022-08-05T15:52:09.933Z,97545.53
2022-08-05T15:54:18.361Z,97550.00
2022-08-05T15:56:46.039Z,97547.31
2022-08-05T15:59:19.855Z,97537.22
2022-08-05T16:01:52.944Z,97548.06
2022-08-05T16:04:25.604Z,97549.56
2022-08-05T16:06:55.733Z,97548.59
2022-08-05T16:09:25.019Z,97553.59
2022-08-05T16:11:54.010Z,97553.31
2022-08-05T16:14:22.800Z,97549.97
2022-08-05T16:16:50.994Z,97554.41
2022-08-05T16:20:03.113Z,97559.25
2022-08-05T16:22:10.712Z,97563.63
2022-08-05T16:24:51.250Z,97558.84
2022-08-05T16:27:32.044Z,97560.75
2022-08-05T16:30:25.839Z,97567.09
2022-08-05T16:32:54.598Z,97568.34
2022-08-05T16:35:28.260Z,97574.53
2022-08-05T16:38:16.013Z,97579.28
2022-08-05T16:40:51.636Z,97576.66
2022-08-05T16:43:25.164Z,97576.78
2022-08-05T16:46:07.051Z,97573.44
2022-08-05T16:48:40.637Z,97585.72
2022-08-05T16:51:09.437Z,97589.31
2022-08-05T16:54:06.074Z,97586.56
2022-08-05T16:56:31.456Z,97588.81
2022-08-05T16:58:59.084Z,97598.38
2022-08-05T17:01:52.573Z,97593.03
2022-08-05T17:04:18.781Z,97600.88
2022-08-05T17:06:53.292Z,97599.34
2022-08-05T17:09:23.120Z,97599.66
2022-08-05T17:11:56.122Z,97612.91
2022-08-05T17:14:36.683Z,97621.25
2022-08-05T17:17:14.539Z,97616.88
2022-08-05T17:19:45.598Z,97620.75
2022-08-05T17:22:24.966Z,97627.47
2022-08-05T17:24:57.063Z,97637.38
2022-08-05T17:27:33.514Z,97632.84
2022-08-05T17:30:07.076Z,97637.00
2022-08-05T17:32:42.135Z,97652.06
2022-08-05T17:35:12.223Z,97649.72
2022-08-05T17:37:45.492Z,97657.88
2022-08-05T17:40:17.925Z,97659.22
2022-08-05T17:42:50.586Z,97664.81
2022-08-05T17:45:22.205Z,97664.53
2022-08-05T17:47:55.081Z,97677.09
2022-08-05T17:50:30.312Z,97672.56
2022-08-05T17:53:00.183Z,97684.34
2022-08-05T17:55:34.247Z,97691.00
2022-08-05T17:58:13.623Z,97697.81
2022-08-05T18:00:47.456Z,97706.75
2022-08-05T18:03:48.351Z,97701.53
2022-08-05T18:06:12.118Z,97729.28
2022-08-05T18:08:45.908Z,97742.00
2022-08-05T18:11:23.952Z,97745.69
2022-08-05T18:14:06.561Z,97754.72
2022-08-05T18:16:51.361Z,97759.47
2022-08-05T18:19:22.755Z,97776.19
2022-08-05T18:22:08.421Z,97787.78
2022-08-05T18:24:39.934Z,97795.88
2022-08-05T18:27:12.981Z,97806.94
2022-08-05T18:29:53.673Z,97803.53
2022-08-05T18:32:27.749Z,97828.81
2022-08-05T18:34:56.758Z,97833.88
2022-08-05T18:37:34.508Z,97834.28
2022-08-05T18:41:50.143Z,97854.06
2022-08-05T18:42:58.078Z,97860.16
2022-08-05T18:45:41.903Z,97865.44
2022-08-05T18:48:11.151Z,97879.00
2022-08-05T18:52:03.255Z,97884.41
2022-08-05T18:53:50.166Z,97891.91
2022-08-05T18:56:21.773Z,97892.94
2022-08-05T18:58:54.934Z,97902.19
2022-08-05T19:01:33.327Z,97905.28
2022-08-05T19:04:24.350Z,97920.31
2022-08-05T19:06:53.826Z,97925.81
2022-08-05T19:09:22.058Z,97938.56
2022-08-05T19:11:59.999Z,97943.84
2022-08-05T19:14:53.419Z,97944.25
2022-08-05T19:17:17.280Z,97950.91
2022-08-05T19:19:48.634Z,97959.59
2022-08-05T19:22:17.732Z,97956.53
2022-08-05T19:24:54.585Z,97954.03
2022-08-05T19:27:27.914Z,97965.06
2022-08-05T19:29:58.602Z,97967.00
2022-08-05T19:32:27.942Z,97971.81
2022-08-05T19:34:56.937Z,97977.44
2022-08-05T19:37:29.804Z,97980.56
2022-08-05T19:40:15.003Z,97983.50
2022-08-05T19:42:42.895Z,97981.88
2022-08-05T19:45:36.297Z,97994.75
2022-08-05T19:48:05.580Z,98006.44
2022-08-05T19:50:33.540Z,98012.34
2022-08-05T19:53:09.603Z,98003.31
2022-08-05T19:56:15.704Z,98005.09
2022-08-05T19:58:29.618Z,98001.75
2022-08-05T20:00:58.229Z,97999.91
2022-08-05T20:03:26.699Z,98010.75
2022-08-05T20:05:56.779Z,98010.28
2022-08-05T20:08:25.612Z,98019.53
2022-08-05T20:10:54.041Z,98011.63
2022-08-05T20:13:54.778Z,98018.50
2022-08-05T20:16:10.234Z,98014.25
2022-08-05T20:18:38.135Z,98027.16
2022-08-05T20:21:07.431Z,98032.31
2022-08-05T20:23:39.472Z,98038.38
2022-08-05T20:26:23.292Z,98041.78
2022-08-05T20:28:55.725Z,98046.25
2022-08-05T20:31:36.794Z,98046.34
2022-08-05T20:34:12.421Z,98049.50
2022-08-05T20:36:43.143Z,98055.63
2022-08-05T20:39:16.110Z,98058.03
2022-08-05T20:41:45.171Z,98053.78
2022-08-05T20:44:19.418Z,98053.81
2022-08-05T20:47:03.427Z,98061.25
2022-08-05T20:49:37.951Z,98069.66
2022-08-05T20:52:08.781Z,98068.38
2022-08-05T20:54:42.873Z,98069.19
2022-08-05T20:57:43.000Z,98080.31
2022-08-05T21:00:41.562Z,98083.91
2022-08-05T21:03:07.332Z,98088.69
2022-08-05T21:05:54.233Z,98086.84
2022-08-05T21:08:26.534Z,98103.31
2022-08-05T21:11:09.198Z,98112.00
2022-08-05T21:13:47.526Z,98111.22
2022-08-05T21:16:29.679Z,98116.22
2022-08-05T21:19:01.930Z,98117.34
2022-08-05T21:21:39.459Z,98124.69
2022-08-05T21:24:15.626Z,98133.38
2022-08-05T21:26:53.136Z,98135.53
2022-08-05T21:29:26.594Z,98135.56
2022-08-05T21:32:00.282Z,98137.03
2022-08-05T21:34:28.590Z,98134.13
2022-08-05T21:36:59.403Z,98137.38
2022-08-05T21:39:28.097Z,98145.81
2022-08-05T21:42:01.993Z,98151.47
2022-08-05T21:44:31.724Z,98148.56
2022-08-05T21:47:00.397Z,98159.66
2022-08-05T21:49:59.272Z,98174.81
2022-08-05T21:52:27.894Z,98182.13
2022-08-05T21:55:06.047Z,98188.63
2022-08-05T21:57:35.740Z,98194.34
2022-08-05T22:00:10.844Z,98196.47
2022-08-05T22:02:42.654Z,98194.84
2022-08-05T22:05:11.609Z,98182.94
2022-08-05T22:07:58.451Z,98170.28
2022-08-05T22:10:28.350Z,98174.09
2022-08-05T22:12:58.883Z,98176.00
2022-08-05T22:16:01.027Z,98174.94
2022-08-05T22:18:24.848Z,98181.97
2022-08-05T22:20:53.993Z,98170.63
2022-08-05T22:24:01.946Z,98194.38
2022-08-05T22:27:10.928Z,98222.75
2022-08-05T22:29:44.239Z,98256.50
2022-08-05T22:32:17.516Z,98272.16
2022-08-05T22:34:45.834Z,98284.00
2022-08-05T22:37:13.503Z,98296.16
2022-08-05T22:39:41.054Z,98305.84
2022-08-05T22:42:12.666Z,98314.19
2022-08-05T22:44:48.168Z,98316.72
2022-08-05T22:47:29.986Z,98306.28
2022-08-05T22:50:20.747Z,98285.31
2022-08-05T22:52:51.344Z,98279.00
2022-08-05T22:55:21.649Z,98257.50
2022-08-05T22:57:51.535Z,98251.31
2022-08-05T23:00:21.679Z,98253.66
2022-08-05T23:02:52.214Z,98265.75
2022-08-05T23:05:22.068Z,98263.63
2022-08-05T23:07:51.409Z,98310.47
2022-08-05T23:10:23.499Z,98335.28
2022-08-05T23:12:54.598Z,98322.63
2022-08-05T23:15:29.937Z,98306.25
2022-08-05T23:18:05.921Z,98321.97
2022-08-05T23:20:39.474Z,98313.38
2022-08-05T23:23:08.717Z,98306.16
2022-08-05T23:25:53.302Z,98314.06
2022-08-05T23:28:28.852Z,98302.19
2022-08-05T23:31:03.728Z,98327.53
2022-08-05T23:34:03.763Z,98350.53
2022-08-05T23:36:39.965Z,98346.91
2022-08-05T23:39:32.449Z,98335.63
2022-08-05T23:42:08.605Z,98333.53
2022-08-05T23:44:42.628Z,98329.94
2022-08-05T23:47:15.333Z,98327.06
2022-08-05T23:49:45.631Z,98335.09
2022-08-05T23:52:32.141Z,98331.78
2022-08-05T23:55:09.201Z,98331.75
2022-08-05T23:57:38.709Z,98328.03
